SHMÚ vydal meteorologické výstrahy na Fog Display warnings

TAF

Aerodrome Forecast TAF

TAF description (Slovak)

17.10.2017 - 17:00 UTC

TAF LZIB 171700Z 1718/1818 05004KT CAVOK
    BECMG 1720/1722 07004KT 2000 BR BKN002
    PROB40 TEMPO 1722/1808 0400 FG OVC001
    BECMG 1809/1811 20006KT CAVOK=
TAF LZKZ 171700Z 1718/1818 35004KT 9999 FEW015
    BECMG 1720/1722 VRB02KT 1500 BR BKN002
    TEMPO 1722/1807 0200 FG OVC001
    BECMG 1808/1810 22010KT CAVOK=
TAF LZTT 171700Z 1718/1818 10003KT CAVOK
    BECMG 1719/1721 VRB02KT 6000 SCT020
    TEMPO 1800/1808 1200 BCFG SCT001
    PROB40 1802/1808 0400 FG OVC002
    BECMG 1809/1811 16008KT 9999 SCT045=

17.10.2017 - 17:00 UTC

TAF LZSL 171700Z 1718/1803 VRB02KT CAVOK
    BECMG 1719/1721 0200 FG OVC001=
TAF LZPP 171700Z 1718/1803 15004KT CAVOK
    BECMG 1720/1722 VRB02KT 0600 FG BKN002=
TAF LZZI 171700Z 1718/1803 11003KT 9999 MIFG NSC
    BECMG 1719/1721 VRB02KT 0200 FG OVC001=

17.10.2017 - 14:00 UTC

TAF LZSL 171400Z 1715/1800 VRB02KT CAVOK
    BECMG 1719/1721 0200 FG OVC001=
TAF LZPP 171400Z 1715/1800 18004KT CAVOK
    BECMG 1720/1722 VRB02KT 0600 FG BKN002=
TAF LZZI 171400Z 1715/1800 11003KT CAVOK
    BECMG 1719/1721 VRB02KT 0200 FG OVC001=

17.10.2017 - 11:00 UTC

TAF LZIB 171100Z 1712/1812 05004KT CAVOK
    BECMG 1720/1722 07004KT 2000 BR BKN002
    PROB40 TEMPO 1722/1808 0400 FG OVC001
    BECMG 1809/1811 20006KT CAVOK=
TAF LZKZ 171100Z 1712/1812 35004KT 9999 FEW015
    BECMG 1720/1722 VRB02KT 1500 BR BKN002
    TEMPO 1722/1807 0200 FG OVC001
    BECMG 1808/1810 22010KT CAVOK=
TAF LZTT 171100Z 1712/1812 10003KT CAVOK
    BECMG 1719/1721 VRB02KT 6000 SCT020
    TEMPO 1800/1808 1200 BCFG SCT001
    PROB40 1802/1808 0400 FG OVC002
    BECMG 1809/1811 16008KT 9999 SCT045=

17.10.2017 - 11:00 UTC

TAF LZSL 171100Z 1712/1721 VRB02KT CAVOK=
TAF LZPP 171100Z 1712/1721 15005KT CAVOK=
TAF LZZI 171100Z 1712/1721 11003KT CAVOK=

17.10.2017 - 05:00 UTC

TAF AMD LZSL 170802Z 1708/1715 VRB02KT 0400 FG BKN002
    BECMG 1708/1710 6000 FEW007
    BECMG 1710/1711 14005KT CAVOK=
TAF AMD LZPP 170802Z 1708/1715 VRB02KT 0200 FG BKN001
    BECMG 1708/1710 2500 BCFG FEW002 SCT005
    BECMG 1710/1711 17006KT CAVOK=
TAF AMD LZZI 170802Z 1708/1715 VRB02KT 1200 BR FEW002 BKN004
    TEMPO 1708/1709 0500 FG OVC002
    BECMG 1709/1711 26005KT CAVOK=

17.10.2017 - 08:00 UTC

TAF LZSL 170800Z 1709/1718 VRB02KT 6000 BKN003
    BECMG 1709/1711 14005KT CAVOK=
TAF LZPP 170800Z 1709/1718 VRB02KT 2500 BCFG BKN002
    BECMG 1709/1711 17006KT CAVOK=
TAF LZZI 170800Z 1709/1718 11003KT 2500 BCFG BKN003
    BECMG 1709/1711 26005KT CAVOK=

17.10.2017 - 05:00 UTC

TAF LZIB 170500Z 1706/1806 05004KT 1500 BR FEW002 SCT006
    TEMPO 1706/1707 0500 FG BKN001
    BECMG 1707/1709 13007KT 4000 BCFG FEW005
    BECMG 1709/1711 CAVOK
    BECMG 1720/1722 07004KT 2000 BR BKN002
    TEMPO 1722/1806 0300 FG OVC001=
TAF LZKZ 170500Z 1706/1806 35004KT 9999 FEW015
    TEMPO 1706/1708 VRB02KT 2300 BCFG FEW002 SCT004
    PROB40 TEMPO 1706/1707 0700 FG BKN001
    BECMG 1708/1710 22006KT CAVOK
    BECMG 1718/1720 VRB02KT 1500 BR BKN002
    TEMPO 1722/1806 0200 FG OVC001=
TAF LZTT 170500Z 1706/1806 VRB02KT 2000 BCFG FEW002 SCT003
    TEMPO 1706/1707 0600 FG BKN001
    BECMG 1708/1710 12004KT 9999 NSW FEW020
    BECMG 1710/1712 CAVOK
    BECMG 1718/1720 VRB02KT
    TEMPO 1800/1806 1200 BCFG SCT001=

17.10.2017 - 05:00 UTC

TAF LZSL 170500Z 1706/1715 VRB02KT 2000 BR BKN003
    TEMPO 1706/1707 0200 FG OVC001
    BECMG 1707/1709 6000 FEW007
    BECMG 1709/1711 14005KT CAVOK=
TAF LZPP 170500Z 1706/1715 VRB02KT 0200 FG BKN001
    BECMG 1707/1709 3000 BCFG FEW002 SCT005
    BECMG 1709/1711 17006KT CAVOK=
TAF LZZI 170500Z 1706/1715 VRB02KT 1700 BR FEW002 BKN004
    TEMPO 1706/1707 0500 FG OVC002
    BECMG 1707/1709 5000 BR SCT007
    BECMG 1709/1711 26005KT CAVOK=

17.10.2017 - 02:00 UTC

TAF LZSL 170200Z 1703/1712 VRB02KT 2300 BR BKN003
    TEMPO 1703/1706 0200 FG OVC001
    BECMG 1707/1709 6000 FEW007
    BECMG 1709/1711 CAVOK=
TAF LZZI 170200Z 1703/1712 VRB02KT 1500 BR FEW001 BKN003
    TEMPO 1703/1706 0100 FG OVC001
    BECMG 1707/1709 5000 BR SCT006
    BECMG 1709/1711 CAVOK=

skok na menu ↑


skok na začiatok stránky ↑